Time;durP1;ratioP1;P1;durP2;ratioP2;P2;SDS_P1;SDS_P2;PMS_P1;PMS_P2;Temp;Humidity;BMP_temperature;BMP_pressure;BME280_temperature;BME280_humidity;BME280_pressure;Samples;Min_cycle;Max_cycle;Signal;HPM_P1;HPM_P2
2022/12/11 00:00:08;;;;;;;39.63;10.43;;;;;;;-143.84;86.31;45035.75;5090515;28;20434;-73
2022/12/11 00:02:35;;;;;;;40.60;10.23;;;;;;;-143.84;86.79;45022.41;5090483;28;20488;-73
2022/12/11 00:05:03;;;;;;;32.53;9.53;;;;;;;-143.84;87.02;45041.44;5090368;28;20448;-72
2022/12/11 00:07:30;;;;;;;33.83;10.80;;;;;;;-143.84;87.48;44997.66;5090137;28;20447;-73
2022/12/11 00:09:57;;;;;;;27.33;9.23;;;;;;;-143.84;88.01;45003.38;5089034;28;20449;-73
2022/12/11 00:12:26;;;;;;;37.03;11.23;;;;;;;-143.84;88.27;44976.72;5088294;28;20434;-73
2022/12/11 00:14:53;;;;;;;26.77;9.60;;;;;;;-143.84;88.50;44946.25;5088920;28;20444;-73
2022/12/11 00:17:20;;;;;;;26.77;10.60;;;;;;;-143.84;88.64;44944.34;5088838;28;20823;-72
2022/12/11 00:19:47;;;;;;;51.33;10.67;;;;;;;-143.84;88.62;44938.63;5088836;28;20534;-72
2022/12/11 00:22:14;;;;;;;23.23;8.40;;;;;;;-143.84;88.73;44900.53;5088733;28;20483;-73
2022/12/11 00:24:41;;;;;;;23.67;9.87;;;;;;;-143.84;88.73;44913.88;5090049;28;20443;-73
2022/12/11 00:27:08;;;;;;;30.63;10.20;;;;;;;-143.84;89.01;44877.69;5090164;28;20438;-73
2022/12/11 00:29:37;;;;;;;25.87;10.20;;;;;;;-143.84;89.21;44889.13;5090033;28;20450;-73
2022/12/11 00:32:05;;;;;;;27.27;11.23;;;;;;;-143.84;90.34;44812.97;5089974;28;20459;-73
2022/12/11 00:34:32;;;;;;;39.53;11.33;;;;;;;-143.84;91.21;44687.28;5089868;28;20476;-73
2022/12/11 00:36:59;;;;;;;31.70;12.20;;;;;;;-143.84;91.56;44538.78;5090095;28;20467;-73
2022/12/11 00:39:26;;;;;;;29.40;10.90;;;;;;;-143.84;91.78;44508.31;5089718;28;20481;-73
2022/12/11 00:41:53;;;;;;;30.50;11.73;;;;;;;-143.84;91.89;44479.78;5089952;28;20476;-73
2022/12/11 00:44:20;;;;;;;25.30;10.90;;;;;;;-143.84;92.11;44447.41;5089859;28;20441;-73
2022/12/11 00:46:49;;;;;;;47.90;12.90;;;;;;;-143.84;92.43;44375.06;5089679;28;20444;-73
2022/12/11 00:49:16;;;;;;;34.90;12.50;;;;;;;-143.84;92.76;44190.41;5089754;28;21178;-73
2022/12/11 00:51:43;;;;;;;35.40;13.40;;;;;;;-143.84;92.83;44211.34;5089534;28;20471;-73
2022/12/11 00:54:10;;;;;;;33.10;13.20;;;;;;;-143.84;92.86;44238.00;5089488;28;20444;-73
2022/12/11 00:56:38;;;;;;;34.07;15.60;;;;;;;-143.84;92.89;44180.88;5089517;28;20447;-73
2022/12/11 00:59:05;;;;;;;27.27;13.63;;;;;;;-143.84;93.12;44159.94;5089629;28;20493;-73
2022/12/11 01:01:32;;;;;;;43.77;14.23;;;;;;;-143.84;93.10;44152.31;5089400;28;20526;-73
2022/12/11 01:04:01;;;;;;;29.70;14.40;;;;;;;-143.84;93.22;44123.78;5089445;28;20444;-73
2022/12/11 01:06:29;;;;;;;31.27;14.40;;;;;;;-143.84;93.49;44087.59;5089596;28;20441;-73
2022/12/11 01:11:38;;;;;;;39.30;13.33;;;;;;;-143.84;93.71;44078.09;5089274;28;20427;-73
2022/12/11 01:14:05;;;;;;;33.83;15.03;;;;;;;-143.84;93.67;44041.91;5089237;28;20825;-73
2022/12/11 01:16:32;;;;;;;29.33;13.40;;;;;;;-143.84;93.71;44076.19;5089676;28;20497;-73
2022/12/11 01:19:02;;;;;;;37.50;13.90;;;;;;;-143.84;93.60;44072.38;5089614;28;20448;-73
2022/12/11 01:21:29;;;;;;;35.90;15.07;;;;;;;-143.84;93.94;44066.66;5089094;28;20479;-73
2022/12/11 01:23:56;;;;;;;40.07;15.63;;;;;;;-143.84;94.03;44013.38;5088470;28;20501;-73
2022/12/11 01:26:23;;;;;;;30.93;14.93;;;;;;;-143.84;94.08;44019.06;5088898;28;20433;-73
2022/12/11 01:28:51;;;;;;;44.57;15.80;;;;;;;-143.84;94.25;43998.13;5089358;28;20442;-73
2022/12/11 01:31:21;;;;;;;32.43;14.90;;;;;;;-143.84;94.88;43941.03;5089305;28;20436;-73
2022/12/11 01:33:48;;;;;;;41.53;16.00;;;;;;;-143.84;95.11;43904.84;5089271;28;20503;-73
2022/12/11 01:36:19;;;;;;;43.53;14.20;;;;;;;-143.84;95.08;43857.28;5088965;28;20881;-73
2022/12/11 01:38:46;;;;;;;43.03;16.30;;;;;;;-143.84;95.17;43878.22;5088874;28;21030;-73
2022/12/11 01:41:14;;;;;;;31.73;15.03;;;;;;;-143.84;95.22;43868.69;5089063;28;20950;-73
2022/12/11 01:44:02;;;;;;;40.87;16.10;;;;;;;-143.84;95.35;43885.81;5089034;28;20436;-73
2022/12/11 01:46:31;;;;;;;40.73;15.77;;;;;;;-143.84;95.46;43864.88;5088829;28;20481;-73
2022/12/11 01:48:59;;;;;;;38.30;16.40;;;;;;;-143.84;95.29;43899.16;5089066;28;20516;-73
2022/12/11 01:51:30;;;;;;;30.83;14.80;;;;;;;-143.84;95.20;43901.06;5088689;28;21279;-73
2022/12/11 01:54:00;;;;;;;35.27;15.27;;;;;;;-143.84;94.99;43899.16;5088935;28;20517;-73
2022/12/11 01:56:31;;;;;;;36.27;15.00;;;;;;;-143.84;94.99;43904.84;5089273;28;20435;-73
2022/12/11 01:59:05;;;;;;;33.93;15.00;;;;;;;-143.84;94.68;43920.09;5088727;28;20449;-73
2022/12/11 02:01:37;;;;;;;38.90;15.50;;;;;;;-143.84;94.58;43931.50;5088706;28;20573;-73
2022/12/11 02:04:05;;;;;;;31.13;14.53;;;;;;;-143.84;94.39;43906.75;5088961;28;20433;-73
2022/12/11 02:06:37;;;;;;;25.80;16.30;;;;;;;-143.84;94.73;43956.25;5088965;28;20489;-73
2022/12/11 02:09:07;;;;;;;37.30;15.67;;;;;;;-143.84;94.80;43918.19;5088906;28;20449;-73
2022/12/11 02:11:43;;;;;;;54.87;16.13;;;;;;;-143.84;95.17;43859.19;5088654;28;20497;-73
2022/12/11 02:14:20;;;;;;;55.83;18.53;;;;;;;-143.84;95.76;43880.13;5088518;28;20435;-73
2022/12/11 02:16:53;;;;;;;37.83;15.20;;;;;;;-143.84;96.06;43872.50;5089039;28;20444;-73
2022/12/11 02:19:37;;;;;;;54.17;18.90;;;;;;;-143.84;96.37;43883.91;5088656;28;20567;-73
2022/12/11 02:22:10;;;;;;;56.33;19.13;;;;;;;-143.84;96.86;43861.06;5088350;28;20482;-73
2022/12/11 02:24:58;;;;;;;47.13;17.90;;;;;;;-143.84;97.22;43883.91;5088679;28;20455;-73
2022/12/11 02:27:33;;;;;;;52.43;17.23;;;;;;;-143.84;97.68;43899.16;5088483;28;20450;-73
2022/12/11 02:30:06;;;;;;;40.00;17.23;;;;;;;-143.84;98.24;43893.44;5088513;28;20443;-73
2022/12/11 02:32:39;;;;;;;40.17;17.90;;;;;;;-143.84;98.84;43929.59;5088338;28;20853;-73
2022/12/11 02:35:12;;;;;;;39.27;18.20;;;;;;;-143.84;99.12;43952.44;5088441;28;20945;-73
2022/12/11 02:37:43;;;;;;;39.07;17.37;;;;;;;-143.84;99.08;43967.69;5091999;28;20439;-73
2022/12/11 02:40:13;;;;;;;38.73;17.60;;;;;;;-143.84;99.25;43942.94;5092651;28;20439;-73
2022/12/11 02:42:44;;;;;;;44.63;17.87;;;;;;;-143.84;99.35;43960.06;5092145;28;20868;-74
2022/12/11 02:45:14;;;;;;;39.27;17.53;;;;;;;-143.84;99.50;43935.31;5092000;28;20499;-74
2022/12/11 02:47:44;;;;;;;48.20;16.57;;;;;;;-143.84;99.34;43960.06;5092000;28;20952;-74
2022/12/11 02:50:16;;;;;;;67.03;17.93;;;;;;;-143.84;99.07;43948.63;5091789;28;20496;-74
2022/12/11 02:52:46;;;;;;;51.30;16.93;;;;;;;-143.84;99.13;43958.16;5092153;28;20436;-74
2022/12/11 02:55:15;;;;;;;33.60;17.10;;;;;;;-143.84;98.80;43944.84;5091921;28;20448;-74
2022/12/11 02:57:47;;;;;;;47.37;17.07;;;;;;;-143.84;98.50;43939.13;5092110;28;20504;-74
2022/12/11 03:00:17;;;;;;;34.13;15.00;;;;;;;-143.84;97.90;43918.19;5091680;28;20514;-74
2022/12/11 03:02:45;;;;;;;54.77;15.80;;;;;;;-143.84;97.69;43872.50;5091807;28;21084;-73
2022/12/11 03:05:14;;;;;;;38.33;14.13;;;;;;;-143.84;98.17;43914.38;5091838;28;20448;-73
2022/12/11 03:07:43;;;;;;;46.17;16.67;;;;;;;-143.84;98.15;43941.03;5091684;28;20496;-71
2022/12/11 03:10:14;;;;;;;40.60;15.70;;;;;;;-143.84;98.48;43941.03;5091608;28;20443;-71
2022/12/11 03:12:44;;;;;;;45.30;15.73;;;;;;;-143.84;98.42;43929.59;5091824;28;20466;-71
2022/12/11 03:15:17;;;;;;;45.23;16.57;;;;;;;-143.84;98.75;43935.31;5091177;28;20444;-72
2022/12/11 03:17:54;;;;;;;44.83;16.57;;;;;;;-143.84;98.92;43960.06;5091210;28;20470;-72
2022/12/11 03:20:33;;;;;;;45.10;16.63;;;;;;;-143.84;98.88;43958.16;5091126;28;20932;-72
2022/12/11 03:23:10;;;;;;;32.67;16.90;;;;;;;-143.84;98.84;43935.31;5090298;28;20536;-71
2022/12/11 03:25:46;;;;;;;47.47;14.90;;;;;;;-143.84;98.57;43952.44;5090729;28;20492;-72
2022/12/11 03:28:19;;;;;;;54.40;15.53;;;;;;;-143.84;98.82;43941.03;5091213;28;20432;-71
2022/12/11 03:30:51;;;;;;;50.23;15.40;;;;;;;-143.84;98.95;43941.03;5091373;28;20451;-71
2022/12/11 03:33:24;;;;;;;39.20;15.47;;;;;;;-143.84;98.98;43946.75;5091322;28;20863;-71
2022/12/11 03:35:56;;;;;;;32.50;15.20;;;;;;;-143.84;98.78;43950.53;5091335;28;20436;-71
2022/12/11 03:38:28;;;;;;;37.27;16.93;;;;;;;-143.84;98.32;43958.16;5091348;28;20520;-72
2022/12/11 03:40:59;;;;;;;53.27;15.83;;;;;;;-143.84;98.18;43929.59;5091013;28;20432;-72
2022/12/11 03:43:29;;;;;;;45.03;16.30;;;;;;;-143.84;98.30;43937.22;5090897;28;20479;-71
2022/12/11 03:45:59;;;;;;;51.50;15.40;;;;;;;-143.84;98.13;43937.22;5091393;28;20439;-71
2022/12/11 03:48:33;;;;;;;36.67;16.70;;;;;;;-143.84;98.16;43914.38;5090231;28;20444;-71
2022/12/11 03:51:04;;;;;;;54.77;15.50;;;;;;;-143.84;97.96;43933.41;5090453;28;20476;-71
2022/12/11 03:53:34;;;;;;;44.33;14.90;;;;;;;-143.84;97.99;43910.56;5090717;28;20435;-71
2022/12/11 03:56:03;;;;;;;46.57;16.17;;;;;;;-143.84;98.26;43920.09;5090738;28;20434;-71
2022/12/11 03:58:31;;;;;;;55.43;16.07;;;;;;;-143.84;97.77;43901.06;5090910;28;20444;-71
2022/12/11 04:01:00;;;;;;;37.10;14.40;;;;;;;-143.84;97.24;43887.72;5091009;28;20443;-71
2022/12/11 04:03:27;;;;;;;41.40;13.50;;;;;;;-143.84;96.70;43887.72;5090549;28;20486;-71
2022/12/11 04:05:55;;;;;;;53.40;13.27;;;;;;;-143.84;96.54;43883.91;5090599;28;20435;-71
2022/12/11 04:08:23;;;;;;;64.27;15.10;;;;;;;-143.84;96.50;43866.78;5090466;28;20432;-71
2022/12/11 04:11:33;;;;;;;29.13;13.60;;;;;;;-143.84;96.36;43876.31;5090660;28;20430;-71
2022/12/11 04:13:40;;;;;;;64.97;15.07;;;;;;;-143.84;96.18;43857.28;5090397;28;20454;-71
2022/12/11 04:16:08;;;;;;;27.47;13.20;;;;;;;-143.84;96.22;43899.16;5090629;28;20447;-71
2022/12/11 04:24:19;;;;;;;46.57;15.53;;;;;;;-143.84;95.92;43872.50;5047504;28;20488;-71
2022/12/11 04:26:47;;;;;;;31.13;14.57;;;;;;;-143.84;96.21;43859.19;5047136;28;20445;-71
2022/12/11 04:29:15;;;;;;;46.63;15.73;;;;;;;-143.84;96.10;43859.19;5066254;28;20852;-71
2022/12/11 04:31:44;;;;;;;41.33;13.90;;;;;;;-143.84;96.00;43891.53;5089756;28;20439;-71
2022/12/11 04:34:12;;;;;;;43.73;14.47;;;;;;;-143.84;96.19;43876.31;5090242;28;20533;-71
2022/12/11 04:36:39;;;;;;;52.10;15.50;;;;;;;-143.84;96.44;43874.41;5090074;28;20443;-71
2022/12/11 04:39:06;;;;;;;47.97;14.77;;;;;;;-143.84;96.62;43887.72;5090246;28;20489;-71
2022/12/11 04:41:34;;;;;;;28.40;13.57;;;;;;;-143.84;97.01;43874.41;5089760;28;20436;-71
2022/12/11 04:44:01;;;;;;;42.97;14.77;;;;;;;-143.84;97.58;43902.97;5089720;28;20598;-71
2022/12/11 04:46:29;;;;;;;38.40;15.00;;;;;;;-143.84;97.87;43912.47;5089700;28;20452;-71
2022/12/11 04:48:59;;;;;;;40.20;15.30;;;;;;;-143.84;98.08;43931.50;5089823;28;21225;-71
2022/12/11 04:51:26;;;;;;;44.60;16.50;;;;;;;-143.84;98.06;43925.78;5089531;28;21057;-71
2022/12/11 04:53:54;;;;;;;45.80;15.80;;;;;;;-143.84;97.95;43920.09;5089994;28;20493;-71
2022/12/11 04:56:22;;;;;;;40.90;15.30;;;;;;;-143.84;97.78;43912.47;5089762;28;21323;-71
2022/12/11 04:58:49;;;;;;;36.50;15.80;;;;;;;-143.84;97.56;43929.59;5089797;28;20481;-71
2022/12/11 05:01:18;;;;;;;35.97;15.83;;;;;;;-143.84;97.51;43916.28;5089835;28;21219;-71
2022/12/11 05:03:46;;;;;;;58.93;16.13;;;;;;;-143.84;97.35;43912.47;5089473;28;20487;-71
2022/12/11 05:06:14;;;;;;;32.03;15.37;;;;;;;-143.84;97.04;43904.84;5089463;28;20917;-71
2022/12/11 05:08:44;;;;;;;49.73;16.27;;;;;;;-143.84;97.04;43910.56;5089463;28;20842;-71
2022/12/11 05:11:13;;;;;;;42.40;15.83;;;;;;;-143.84;96.63;43908.66;5089515;28;20436;-71
2022/12/11 05:13:40;;;;;;;35.10;13.30;;;;;;;-143.84;95.87;43859.19;5089339;28;20967;-71
2022/12/11 05:16:09;;;;;;;44.10;13.97;;;;;;;-143.84;95.08;43872.50;5089343;28;20439;-71
2022/12/11 05:18:36;;;;;;;27.10;10.83;;;;;;;-143.84;93.97;43910.56;5089249;28;20440;-71
2022/12/11 05:21:05;;;;;;;32.77;13.40;;;;;;;-143.84;92.44;44030.50;5089256;28;20432;-71
2022/12/11 05:23:34;;;;;;;26.93;13.10;;;;;;;-143.84;91.38;44199.91;5089080;28;20479;-71
2022/12/11 05:26:03;;;;;;;31.07;12.87;;;;;;;-143.84;90.89;44399.81;5089174;28;20450;-71
2022/12/11 05:28:32;;;;;;;22.53;11.00;;;;;;;-143.84;89.69;44660.63;5089068;28;20454;-71
2022/12/11 05:31:01;;;;;;;31.33;12.23;;;;;;;-143.84;88.73;44790.13;5089225;28;20517;-71
2022/12/11 05:33:29;;;;;;;31.00;11.07;;;;;;;-143.84;87.93;44881.50;5089404;28;21193;-71
2022/12/11 05:35:56;;;;;;;30.97;11.47;;;;;;;-143.84;87.19;44944.34;5089157;28;20504;-71
2022/12/11 05:38:24;;;;;;;41.80;11.67;;;;;;;-143.84;86.20;44984.31;5088879;28;20437;-71
2022/12/11 05:40:58;;;;;;;26.67;11.10;;;;;;;-143.84;85.43;45028.13;5089208;28;20438;-71
2022/12/11 05:43:26;;;;;;;31.07;12.30;;;;;;;-143.84;85.11;45035.75;5089190;28;20592;-71
2022/12/11 05:45:53;;;;;;;32.00;11.80;;;;;;;-143.84;84.70;45049.06;5088941;28;20488;-71
2022/12/11 05:48:20;;;;;;;22.97;11.30;;;;;;;-143.84;84.38;45052.88;5088706;28;20504;-71
2022/12/11 05:50:58;;;;;;;32.67;11.10;;;;;;;-143.84;83.69;45071.91;5088720;28;20486;-71
2022/12/11 05:53:25;;;;;;;35.57;12.40;;;;;;;-143.84;83.05;45098.56;5089149;28;20441;-71
2022/12/11 05:55:52;;;;;;;22.80;9.30;;;;;;;-143.84;82.70;45096.66;5089178;28;20885;-70
2022/12/11 05:58:21;;;;;;;26.80;9.43;;;;;;;-143.84;82.20;45079.53;5088660;28;20979;-70
2022/12/11 06:00:48;;;;;;;37.30;10.87;;;;;;;-143.84;82.13;45094.78;5089053;28;20870;-70
2022/12/11 06:03:16;;;;;;;29.53;10.73;;;;;;;-143.84;81.93;45108.09;5088423;28;21012;-70
2022/12/11 06:05:43;;;;;;;41.30;9.90;;;;;;;-143.84;81.98;45100.47;5088781;28;20925;-70
2022/12/11 06:08:11;;;;;;;27.07;9.67;;;;;;;-143.84;81.62;45106.19;5088673;28;20807;-70
2022/12/11 06:10:38;;;;;;;30.80;10.23;;;;;;;-143.84;81.59;45075.72;5089001;28;20999;-70
2022/12/11 06:13:05;;;;;;;22.27;9.00;;;;;;;-143.84;81.53;45115.72;5092528;28;20485;-71
2022/12/11 06:15:34;;;;;;;20.10;10.03;;;;;;;-143.84;81.52;45100.47;5092499;28;20516;-70
2022/12/11 06:18:01;;;;;;;29.53;10.27;;;;;;;-143.84;81.38;45129.03;5092861;28;20451;-70
2022/12/11 06:20:32;;;;;;;31.13;12.13;;;;;;;-143.84;81.55;45115.72;5092591;28;20501;-70
2022/12/11 06:22:59;;;;;;;23.67;10.17;;;;;;;-143.84;81.47;45132.84;5092382;28;20543;-70
2022/12/11 06:25:27;;;;;;;41.93;12.43;;;;;;;-143.84;81.82;45085.25;5092419;28;21010;-70
2022/12/11 06:27:54;;;;;;;30.37;10.00;;;;;;;-143.84;81.62;45119.53;5092378;28;20454;-70
2022/12/11 06:30:22;;;;;;;28.17;10.17;;;;;;;-143.84;82.03;45110.00;5091283;28;20439;-71
2022/12/11 06:32:50;;;;;;;30.90;10.13;;;;;;;-143.84;82.05;45104.28;5071961;28;20458;-73
2022/12/11 06:35:17;;;;;;;29.70;9.93;;;;;;;-143.84;82.18;45085.25;5072210;28;20447;-73
2022/12/11 06:37:45;;;;;;;30.27;10.93;;;;;;;-143.84;82.04;45090.97;5072090;28;20444;-73
2022/12/11 06:40:12;;;;;;;27.63;10.10;;;;;;;-143.84;82.01;45089.06;5072124;28;20445;-72
2022/12/11 06:42:39;;;;;;;47.77;10.10;;;;;;;-143.84;81.70;45110.00;5071631;28;20902;-72
2022/12/11 06:45:07;;;;;;;35.40;9.40;;;;;;;-143.84;81.73;45087.16;5071505;28;20508;-72
2022/12/11 06:47:35;;;;;;;24.13;8.87;;;;;;;-143.84;81.31;45125.22;5071877;28;20431;-72
2022/12/11 06:50:04;;;;;;;24.23;10.23;;;;;;;-143.84;81.65;45104.28;5071745;28;20864;-72
2022/12/11 06:52:31;;;;;;;35.53;10.17;;;;;;;-143.84;81.70;45113.81;5071765;28;21238;-72
2022/12/11 06:54:58;;;;;;;25.97;10.40;;;;;;;-143.84;81.74;45144.28;5071721;28;20448;-73
2022/12/11 06:57:26;;;;;;;31.30;10.90;;;;;;;-143.84;81.50;45098.56;5071479;28;20474;-72
2022/12/11 06:59:53;;;;;;;31.60;11.10;;;;;;;-143.84;81.36;45090.97;5071131;28;20841;-72
2022/12/11 07:02:21;;;;;;;24.33;10.30;;;;;;;-143.84;81.52;45106.19;5071504;28;20445;-72
2022/12/11 07:04:48;;;;;;;24.13;9.30;;;;;;;-143.84;81.52;45119.53;5083605;28;20505;-72
2022/12/11 07:07:18;;;;;;;32.73;9.17;;;;;;;-143.84;81.21;45098.56;5091740;28;20559;-72
2022/12/11 07:09:45;;;;;;;31.40;9.23;;;;;;;-143.84;81.47;45094.78;5091454;28;20432;-72
2022/12/11 07:12:13;;;;;;;34.40;9.73;;;;;;;-143.84;81.24;45090.97;5091047;28;20913;-72
2022/12/11 07:14:40;;;;;;;41.47;9.60;;;;;;;-143.84;81.19;45129.03;5090580;28;20443;-72
2022/12/11 07:17:07;;;;;;;23.53;8.93;;;;;;;-143.84;80.99;45121.44;5091366;28;20432;-72
2022/12/11 07:19:34;;;;;;;37.07;9.87;;;;;;;-143.84;81.16;45110.00;5091091;28;20435;-72
2022/12/11 07:22:01;;;;;;;34.73;10.13;;;;;;;-143.84;81.58;45108.09;5091355;28;20872;-73
2022/12/11 07:24:30;;;;;;;29.77;9.80;;;;;;;-143.84;82.16;45096.66;5091814;28;20467;-71
2022/12/11 07:26:57;;;;;;;38.00;9.03;;;;;;;-143.84;82.15;45094.78;5091565;28;20867;-72
2022/12/11 07:29:24;;;;;;;22.03;8.07;;;;;;;-143.84;82.60;45071.91;5091177;28;20970;-73
2022/12/11 07:31:51;;;;;;;32.87;9.20;;;;;;;-143.84;83.00;45079.53;5091075;28;20439;-72
2022/12/11 07:34:18;;;;;;;27.40;8.73;;;;;;;-143.84;83.08;45083.34;5090863;28;20432;-72
2022/12/11 07:36:45;;;;;;;20.90;8.30;;;;;;;-143.84;82.87;45054.78;5091210;28;20436;-72
2022/12/11 07:39:13;;;;;;;36.23;8.70;;;;;;;-143.84;83.09;45050.97;5091120;28;20420;-72
2022/12/11 07:41:42;;;;;;;29.60;9.50;;;;;;;-143.84;83.83;45035.75;5091280;28;20496;-72
2022/12/11 07:44:09;;;;;;;25.37;8.30;;;;;;;-143.84;83.74;45081.44;5090372;28;20891;-72
2022/12/11 07:46:36;;;;;;;24.27;7.60;;;;;;;-143.84;84.12;45024.31;5091027;28;20443;-72
2022/12/11 07:49:05;;;;;;;20.83;7.20;;;;;;;-143.84;83.73;45039.53;5090837;28;20444;-73
2022/12/11 07:51:35;;;;;;;30.47;8.00;;;;;;;-143.84;83.88;45039.53;5090322;28;20488;-72
2022/12/11 07:54:06;;;;;;;24.57;8.30;;;;;;;-143.84;84.03;45043.34;5090914;28;20440;-72
2022/12/11 07:56:34;;;;;;;29.37;7.17;;;;;;;-143.84;84.04;45043.34;5091322;28;20909;-72
2022/12/11 07:59:04;;;;;;;16.20;7.20;;;;;;;-143.84;83.98;45054.78;5090217;28;20432;-72
2022/12/11 08:01:34;;;;;;;20.20;7.93;;;;;;;-143.84;84.19;45070.00;5090678;28;20934;-72
2022/12/11 08:04:02;;;;;;;19.80;6.50;;;;;;;-143.84;84.15;45035.75;5090043;28;20494;-75
2022/12/11 08:06:30;;;;;;;18.90;6.70;;;;;;;-143.84;83.99;45045.25;5090259;28;20463;-75
2022/12/11 08:08:58;;;;;;;21.77;6.50;;;;;;;-143.84;84.15;45018.59;5089581;28;20433;-75
2022/12/11 08:11:26;;;;;;;31.93;6.43;;;;;;;-143.84;84.40;45035.75;5088132;28;20500;-75
2022/12/11 08:13:53;;;;;;;14.73;6.70;;;;;;;-143.84;83.85;45018.59;5088461;28;20447;-75
2022/12/11 08:16:23;;;;;;;32.07;8.80;;;;;;;-143.84;84.03;45037.66;5089131;28;20780;-74
2022/12/11 08:18:50;;;;;;;23.83;6.77;;;;;;;-143.84;84.48;45037.66;5089235;28;20512;-75
2022/12/11 08:21:18;;;;;;;17.07;7.63;;;;;;;-143.84;84.38;45039.53;5090444;28;20463;-75
2022/12/11 08:23:46;;;;;;;17.60;8.00;;;;;;;-143.84;84.69;45031.94;5090176;28;20540;-74
2022/12/11 08:26:15;;;;;;;15.50;7.10;;;;;;;-143.84;85.06;45031.94;5090113;28;20436;-75
2022/12/11 08:28:42;;;;;;;20.97;6.33;;;;;;;-143.84;85.08;45010.97;5089460;28;20432;-74
2022/12/11 08:31:11;;;;;;;21.13;7.20;;;;;;;-143.84;85.46;45009.09;5089937;28;20444;-74
2022/12/11 08:33:41;;;;;;;33.20;7.20;;;;;;;-143.84;85.52;45026.22;5089909;28;20433;-74
2022/12/11 08:36:10;;;;;;;17.50;6.97;;;;;;;-143.84;85.74;44957.66;5089950;28;20444;-74
2022/12/11 08:38:37;;;;;;;21.10;6.93;;;;;;;-143.84;85.54;45024.31;5089901;28;20549;-74
2022/12/11 08:41:09;;;;;;;14.73;5.70;;;;;;;-143.84;85.40;44984.31;5090026;28;20444;-74
2022/12/11 08:43:36;;;;;;;23.53;6.23;;;;;;;-143.84;85.38;45003.38;5089182;28;20923;-74
2022/12/11 08:46:03;;;;;;;17.00;6.60;;;;;;;-143.84;85.42;45005.28;5089721;28;20427;-75
2022/12/11 08:48:31;;;;;;;18.87;5.43;;;;;;;-143.84;85.28;44995.75;5090132;28;20521;-74
2022/12/11 08:51:01;;;;;;;14.00;5.17;;;;;;;-143.84;85.37;44980.53;5089364;28;20491;-74
2022/12/11 08:53:29;;;;;;;24.87;6.10;;;;;;;-143.84;84.97;45010.97;5089498;28;20454;-74
2022/12/11 08:56:01;;;;;;;11.73;4.20;;;;;;;-143.84;84.77;45035.75;5088688;28;20440;-74
2022/12/11 08:58:28;;;;;;;16.87;4.90;;;;;;;-143.84;84.83;45022.41;5088858;28;20432;-73
2022/12/11 09:00:56;;;;;;;11.60;3.90;;;;;;;-143.84;84.43;45033.84;5089123;28;20432;-74
2022/12/11 09:03:23;;;;;;;16.50;4.90;;;;;;;-143.84;84.12;45028.13;5089016;28;21298;-74
2022/12/11 09:05:51;;;;;;;21.37;4.40;;;;;;;-143.84;83.83;45070.00;5088801;28;20941;-74
2022/12/11 09:08:20;;;;;;;23.70;5.60;;;;;;;-143.84;83.55;45050.97;5089076;28;20443;-73
2022/12/11 09:10:47;;;;;;;22.70;5.90;;;;;;;-143.84;82.98;45062.41;5089366;28;21218;-73
2022/12/11 09:13:14;;;;;;;18.17;4.73;;;;;;;-143.84;82.80;45077.63;5071056;28;20449;-73
2022/12/11 09:15:41;;;;;;;20.77;5.77;;;;;;;-143.84;82.46;45047.16;5088151;28;20504;-73
2022/12/11 09:18:08;;;;;;;16.00;4.27;;;;;;;-143.84;82.55;45073.81;5089141;28;20428;-73
2022/12/11 09:20:36;;;;;;;16.30;3.83;;;;;;;-143.84;82.58;45077.63;5088941;28;20440;-74
2022/12/11 09:23:03;;;;;;;20.63;4.20;;;;;;;-143.84;82.44;45071.91;5088994;28;20436;-74
2022/12/11 09:25:32;;;;;;;17.07;4.47;;;;;;;-143.84;82.18;45075.72;5089508;28;21258;-74
2022/12/11 09:28:00;;;;;;;30.37;5.20;;;;;;;-143.84;82.04;45087.16;5088540;28;20925;-74
2022/12/11 09:30:27;;;;;;;20.23;5.73;;;;;;;-143.84;82.19;45070.00;5089309;28;20541;-74
2022/12/11 09:32:54;;;;;;;19.37;5.50;;;;;;;-143.84;82.34;45064.31;5089450;28;20436;-74
2022/12/11 09:35:21;;;;;;;12.83;4.13;;;;;;;-143.84;82.41;45087.16;5090488;28;20949;-74
2022/12/11 09:37:49;;;;;;;8.30;3.60;;;;;;;-143.84;82.33;45100.47;5088552;28;20443;-73
2022/12/11 09:40:16;;;;;;;13.10;6.40;;;;;;;-143.84;82.86;45054.78;5088952;28;20984;-73
2022/12/11 09:42:53;;;;;;;18.77;6.87;;;;;;;-143.84;82.73;45071.91;5088948;28;20489;-73
2022/12/11 09:45:21;;;;;;;15.67;4.87;;;;;;;-143.84;82.92;45071.91;5088951;28;20478;-73
2022/12/11 09:47:53;;;;;;;19.53;5.23;;;;;;;-143.84;82.94;45054.78;5092861;28;20489;-73
2022/12/11 09:50:24;;;;;;;14.20;5.23;;;;;;;-143.84;83.41;45049.06;5093001;28;20518;-72
2022/12/11 09:53:04;;;;;;;12.50;4.77;;;;;;;-143.84;82.94;45064.31;5093293;28;20508;-72
2022/12/11 09:55:40;;;;;;;11.90;4.83;;;;;;;-143.84;82.79;45062.41;5093108;28;20485;-73
2022/12/11 09:58:18;;;;;;;26.60;6.87;;;;;;;-143.84;82.55;45083.34;5092349;28;20432;-72
2022/12/11 10:00:48;;;;;;;18.30;5.60;;;;;;;-143.84;82.16;45085.25;5092737;28;20428;-72
2022/12/11 10:03:37;;;;;;;25.37;4.97;;;;;;;-143.84;81.10;45117.63;5087056;28;20436;-72
2022/12/11 10:06:12;;;;;;;13.27;5.17;;;;;;;-143.84;79.90;45070.00;5091370;28;20790;-73
2022/12/11 10:08:48;;;;;;;12.77;5.30;;;;;;;-143.84;78.33;45094.78;5092747;28;20447;-72
2022/12/11 10:11:50;;;;;;;17.80;6.10;;;;;;;-143.84;77.39;45098.56;5092953;28;20550;-73
2022/12/11 10:14:26;;;;;;;20.53;6.03;;;;;;;-143.84;76.02;45117.63;5085009;28;20451;-73
2022/12/11 10:16:57;;;;;;;20.87;6.27;;;;;;;-143.84;77.21;45104.28;5092517;28;20505;-73
2022/12/11 10:19:27;;;;;;;23.37;7.27;;;;;;;-143.84;78.19;45125.22;5092425;28;20546;-73
2022/12/11 10:21:57;;;;;;;27.53;7.50;;;;;;;-143.84;79.14;45121.44;5092491;28;20447;-76
2022/12/11 10:24:30;;;;;;;23.00;7.70;;;;;;;-143.84;80.61;45098.56;5095120;28;20490;-72
2022/12/11 10:26:59;;;;;;;35.47;7.97;;;;;;;-143.84;82.41;45062.41;5113032;28;20933;-74
2022/12/11 10:29:29;;;;;;;23.70;8.07;;;;;;;-143.84;83.78;45039.53;5112805;28;20443;-73
2022/12/11 10:31:58;;;;;;;29.53;8.87;;;;;;;-143.84;84.40;45037.66;5112685;28;20442;-73
2022/12/11 10:34:33;;;;;;;31.03;8.17;;;;;;;-143.84;84.35;45056.69;5111978;28;20438;-73
2022/12/11 10:37:00;;;;;;;38.97;8.47;;;;;;;-143.84;85.20;45009.09;5112710;28;20466;-73
2022/12/11 10:39:28;;;;;;;33.47;8.03;;;;;;;-143.84;85.52;45024.31;5112876;28;20499;-74
2022/12/11 10:41:57;;;;;;;35.23;7.73;;;;;;;-143.84;86.40;45012.88;5112780;28;20434;-73
2022/12/11 10:44:25;;;;;;;34.30;8.40;;;;;;;-143.84;86.88;44969.09;5112541;28;20490;-73
2022/12/11 10:47:06;;;;;;;41.90;12.03;;;;;;;-143.84;87.92;44927.19;5112459;28;20449;-73
2022/12/11 10:49:36;;;;;;;40.87;10.97;;;;;;;-143.84;88.40;44864.38;5112168;28;20479;-73
2022/12/11 10:52:10;;;;;;;43.57;9.00;;;;;;;-143.84;89.32;44805.34;5112181;28;20473;-72
2022/12/11 10:54:40;;;;;;;49.83;11.60;;;;;;;-143.84;89.72;44731.09;5112308;28;20516;-72
2022/12/11 10:57:09;;;;;;;51.60;12.03;;;;;;;-143.84;90.40;44618.75;5111760;28;20441;-72
2022/12/11 10:59:39;;;;;;;52.27;14.43;;;;;;;-143.84;90.83;44525.47;5112542;28;20438;-72
2022/12/11 11:02:19;;;;;;;44.03;13.97;;;;;;;-143.84;91.34;44388.38;5096719;28;20450;-73
2022/12/11 11:04:47;;;;;;;29.10;11.20;;;;;;;-143.84;91.80;44264.66;5091731;28;20892;-73
2022/12/11 11:07:15;;;;;;;42.43;13.47;;;;;;;-143.84;92.22;44121.88;5091608;28;20447;-73
2022/12/11 11:09:43;;;;;;;43.40;13.40;;;;;;;-143.84;92.62;44089.50;5091970;28;20547;-74
2022/12/11 11:12:23;;;;;;;30.20;12.80;;;;;;;-143.84;93.10;44009.56;5093102;28;20448;-72
2022/12/11 11:15:00;;;;;;;38.93;12.90;;;;;;;-143.84;93.20;43998.13;5093292;28;20444;-71
2022/12/11 11:17:31;;;;;;;43.47;14.47;;;;;;;-143.84;93.23;43979.09;5093240;28;20448;-71
2022/12/11 11:20:05;;;;;;;47.13;13.13;;;;;;;-143.84;93.41;43961.97;5092818;28;20472;-71
2022/12/11 11:22:32;;;;;;;40.70;13.33;;;;;;;-143.84;93.45;43984.81;5092720;28;20434;-71